Time;durP1;ratioP1;P1;durP2;ratioP2;P2;SDS_P1;SDS_P2;PMS_P1;PMS_P2;Temp;Humidity;BMP_temperature;BMP_pressure;BME280_temperature;BME280_humidity;BME280_pressure;Samples;Min_cycle;Max_cycle;Signal;HPM_P1;HPM_P2
2021/12/14 00:00:05;;;;;;;15.18;13.57;;;8.50;99.90;;;;;;4959150;28;89168;-36
2021/12/14 00:02:31;;;;;;;17.02;14.35;;;8.50;99.90;;;;;;4958360;28;90247;-36
2021/12/14 00:05:01;;;;;;;15.35;13.75;;;8.40;99.90;;;;;;4958475;28;90883;-39
2021/12/14 00:07:27;;;;;;;13.52;12.25;;;8.40;99.90;;;;;;4958392;28;88667;-37
2021/12/14 00:10:01;;;;;;;15.57;13.45;;;8.40;99.90;;;;;;4958204;28;89110;-34
2021/12/14 00:15:03;;;;;;;15.63;13.98;;;8.40;99.90;;;;;;4957151;28;89648;-41
2021/12/14 00:17:42;;;;;;;17.23;14.38;;;8.50;99.90;;;;;;4955687;28;87658;-43
2021/12/14 00:20:17;;;;;;;15.40;12.98;;;8.50;99.90;;;;;;4957501;28;89701;-38
2021/12/14 00:25:38;;;;;;;15.98;14.38;;;8.40;99.90;;;;;;4958251;28;89447;-39
2021/12/14 00:28:08;;;;;;;15.07;13.10;;;8.40;99.90;;;;;;4958525;28;89400;-41
2021/12/14 00:30:35;;;;;;;16.42;13.70;;;8.40;99.90;;;;;;4958279;28;88444;-39
2021/12/14 00:33:02;;;;;;;18.70;13.40;;;8.40;99.90;;;;;;4958360;28;90297;-39
2021/12/14 00:35:28;;;;;;;14.88;13.10;;;8.40;99.90;;;;;;4958023;28;89898;-42
2021/12/14 00:37:55;;;;;;;22.30;14.77;;;8.40;99.90;;;;;;4958001;28;88513;-41
2021/12/14 00:40:35;;;;;;;19.92;13.50;;;8.40;99.90;;;;;;4958471;28;87561;-41
2021/12/14 00:43:02;;;;;;;16.42;13.82;;;8.40;99.90;;;;;;4958510;28;90430;-36
2021/12/14 00:45:32;;;;;;;18.15;14.57;;;8.40;99.90;;;;;;4958024;28;90463;-35
2021/12/14 00:47:58;;;;;;;17.95;14.27;;;8.40;99.90;;;;;;4958474;28;88734;-39
2021/12/14 00:50:27;;;;;;;20.30;14.40;;;8.40;99.90;;;;;;4957727;28;87978;-40
2021/12/14 00:52:53;;;;;;;15.75;14.25;;;8.40;99.90;;;;;;4958072;28;90670;-38
2021/12/14 00:55:31;;;;;;;16.58;14.32;;;8.40;99.90;;;;;;4961587;28;89391;-39
2021/12/14 00:57:58;;;;;;;18.60;15.30;;;8.40;99.90;;;;;;4961337;28;87762;-40
2021/12/14 01:00:31;;;;;;;15.63;12.90;;;8.40;99.90;;;;;;4961414;28;88992;-41
2021/12/14 01:02:57;;;;;;;17.83;16.02;;;8.40;99.90;;;;;;4961278;28;89135;-44
2021/12/14 01:05:29;;;;;;;17.30;15.45;;;8.40;99.90;;;;;;4961007;28;88765;-38
2021/12/14 01:07:55;;;;;;;22.30;16.48;;;8.40;99.90;;;;;;4976235;28;89105;-34
2021/12/14 01:10:29;;;;;;;21.05;14.68;;;8.40;99.90;;;;;;4961206;28;88334;-41
2021/12/14 01:13:00;;;;;;;18.83;15.57;;;8.40;99.90;;;;;;4961248;28;90651;-37
2021/12/14 01:15:50;;;;;;;25.02;17.88;;;8.40;99.90;;;;;;4961040;28;89775;-39
2021/12/14 01:18:30;;;;;;;21.38;16.67;;;8.40;99.90;;;;;;4961191;28;89116;-43
2021/12/14 01:21:02;;;;;;;19.10;17.27;;;8.40;99.90;;;;;;4960813;28;88323;-37
2021/12/14 01:23:33;;;;;;;20.70;17.38;;;8.50;99.90;;;;;;4960716;28;90678;-43
2021/12/14 01:26:06;;;;;;;19.88;17.85;;;8.40;99.90;;;;;;4960753;28;89740;-36
2021/12/14 01:28:33;;;;;;;20.02;17.50;;;8.40;99.90;;;;;;4959822;28;88657;-44
2021/12/14 01:31:24;;;;;;;19.08;16.80;;;8.40;99.90;;;;;;4960152;28;89176;-38
2021/12/14 01:33:57;;;;;;;19.85;17.83;;;8.40;99.90;;;;;;4959555;28;90267;-44
2021/12/14 01:36:28;;;;;;;22.50;18.08;;;8.40;99.90;;;;;;4959721;28;89774;-38
2021/12/14 01:39:23;;;;;;;20.92;18.15;;;8.40;99.90;;;;;;4960571;28;88727;-35
2021/12/14 01:41:59;;;;;;;21.73;18.20;;;8.40;99.90;;;;;;4959888;28;89808;-37
2021/12/14 01:44:28;;;;;;;22.45;16.55;;;8.40;99.90;;;;;;4959213;28;90483;-42
2021/12/14 01:47:23;;;;;;;25.60;19.10;;;8.30;99.90;;;;;;4960418;28;89995;-36
2021/12/14 01:49:49;;;;;;;22.33;18.08;;;8.40;99.90;;;;;;4956550;28;87529;-40
2021/12/14 01:52:19;;;;;;;21.27;17.75;;;8.40;99.90;;;;;;4959956;28;88671;-44
2021/12/14 01:54:49;;;;;;;18.67;16.83;;;8.40;99.90;;;;;;4959763;28;90129;-38
2021/12/14 01:57:21;;;;;;;24.08;17.75;;;8.30;99.90;;;;;;4959939;28;90605;-40
2021/12/14 01:59:49;;;;;;;21.33;19.13;;;8.30;99.90;;;;;;4959967;28;88836;-39
2021/12/14 02:02:32;;;;;;;21.88;18.58;;;8.40;99.90;;;;;;4959417;28;87672;-38
2021/12/14 02:05:05;;;;;;;26.55;19.50;;;8.40;99.90;;;;;;4958453;28;89362;-36
2021/12/14 02:07:32;;;;;;;23.33;19.30;;;8.30;99.90;;;;;;4958641;28;91323;-44
2021/12/14 02:10:04;;;;;;;22.77;19.58;;;8.30;99.90;;;;;;4959545;28;89603;-44
2021/12/14 02:12:31;;;;;;;20.08;18.00;;;8.30;99.90;;;;;;4958716;28;89653;-35
2021/12/14 02:15:17;;;;;;;18.15;16.00;;;8.30;99.90;;;;;;4957250;28;89165;-40
2021/12/14 02:17:44;;;;;;;22.50;18.50;;;8.30;99.90;;;;;;4958721;28;90318;-34
2021/12/14 02:20:11;;;;;;;21.15;18.73;;;8.30;99.90;;;;;;4958963;28;89385;-36
2021/12/14 02:22:37;;;;;;;21.87;18.83;;;8.40;99.90;;;;;;4959745;28;87682;-39
2021/12/14 02:25:05;;;;;;;22.52;19.27;;;8.40;99.90;;;;;;4960150;28;88833;-35
2021/12/14 02:27:39;;;;;;;25.00;19.13;;;8.40;99.90;;;;;;4960224;28;90248;-35
2021/12/14 02:30:09;;;;;;;21.00;17.50;;;8.30;99.90;;;;;;4960293;28;88847;-42
2021/12/14 02:32:35;;;;;;;22.20;18.88;;;8.30;99.90;;;;;;4959697;28;88731;-42
2021/12/14 02:35:06;;;;;;;22.38;19.10;;;8.40;99.90;;;;;;4960305;28;89315;-41
2021/12/14 02:37:46;;;;;;;20.95;17.60;;;8.40;99.90;;;;;;4960897;28;90698;-34
2021/12/14 02:40:32;;;;;;;21.17;18.10;;;8.40;99.90;;;;;;4960216;28;88638;-39
2021/12/14 02:43:01;;;;;;;21.98;19.67;;;8.40;99.90;;;;;;4959496;28;88122;-41
2021/12/14 02:45:27;;;;;;;26.15;19.60;;;8.40;99.90;;;;;;4959251;28;92751;-38
2021/12/14 02:47:54;;;;;;;23.05;19.17;;;8.40;99.90;;;;;;4958940;28;89527;-46
2021/12/14 02:50:21;;;;;;;20.77;17.50;;;8.30;99.90;;;;;;4959742;28;89296;-39
2021/12/14 02:52:47;;;;;;;25.50;19.87;;;8.30;99.90;;;;;;4959009;28;87697;-40
2021/12/14 02:55:19;;;;;;;27.02;21.33;;;8.30;99.90;;;;;;4959388;28;90126;-40
2021/12/14 02:57:49;;;;;;;24.23;20.52;;;8.30;99.90;;;;;;4959043;28;89316;-40
2021/12/14 03:00:36;;;;;;;24.30;19.92;;;8.40;99.90;;;;;;4958412;28;87452;-36
2021/12/14 03:03:04;;;;;;;25.70;21.30;;;8.40;99.90;;;;;;4959362;28;89020;-36
2021/12/14 03:05:34;;;;;;;26.20;20.65;;;8.40;99.90;;;;;;4957554;28;90420;-34
2021/12/14 03:08:14;;;;;;;24.45;19.65;;;8.40;99.90;;;;;;4958274;28;89547;-36
2021/12/14 03:13:18;;;;;;;27.50;23.35;;;8.30;99.90;;;;;;4952228;28;90415;-37
2021/12/14 03:15:51;;;;;;;30.15;22.10;;;8.40;99.90;;;;;;4957745;28;90805;-37
2021/12/14 03:18:24;;;;;;;24.65;20.85;;;8.30;99.90;;;;;;4958698;28;89518;-42
2021/12/14 03:21:03;;;;;;;26.25;22.48;;;8.40;99.90;;;;;;4959073;28;89134;-42
2021/12/14 03:26:21;;;;;;;29.75;23.55;;;8.30;99.90;;;;;;4996819;28;88764;-40
2021/12/14 03:28:50;;;;;;;23.75;21.25;;;8.30;99.90;;;;;;4998782;28;89592;-41
2021/12/14 03:31:30;;;;;;;24.90;21.38;;;8.30;99.90;;;;;;4998463;28;89343;-40
2021/12/14 03:34:28;;;;;;;29.27;22.13;;;8.30;99.90;;;;;;4980950;28;87899;-36
2021/12/14 03:36:58;;;;;;;27.37;24.13;;;8.30;99.90;;;;;;4998882;28;90361;-38
2021/12/14 03:39:28;;;;;;;33.00;24.63;;;8.30;99.90;;;;;;4999156;28;89690;-39
2021/12/14 03:41:58;;;;;;;26.35;23.60;;;8.30;99.90;;;;;;4998668;28;89412;-40
2021/12/14 03:44:34;;;;;;;27.92;24.52;;;8.30;99.90;;;;;;4998784;28;89006;-36
2021/12/14 03:47:16;;;;;;;38.60;25.63;;;8.30;99.90;;;;;;4997208;28;90217;-44
2021/12/14 03:49:45;;;;;;;30.45;25.08;;;8.30;99.90;;;;;;4997384;28;88341;-38
2021/12/14 03:52:12;;;;;;;;;;;8.30;99.90;;;;;;4999156;28;87608;-37
2021/12/14 03:54:38;;;;;;;29.98;25.67;;;8.30;99.90;;;;;;4998922;28;87713;-37
2021/12/14 03:57:06;;;;;;;27.83;24.00;;;8.30;99.90;;;;;;4997602;28;89885;-44
2021/12/14 03:59:33;;;;;;;36.67;26.45;;;8.20;99.90;;;;;;4997390;28;90560;-40
2021/12/14 04:02:01;;;;;;;32.30;26.08;;;8.20;99.90;;;;;;4997496;28;90160;-40
2021/12/14 04:04:42;;;;;;;35.20;25.38;;;8.30;99.90;;;;;;4996670;28;87673;-37
2021/12/14 04:07:10;;;;;;;29.35;24.42;;;8.30;99.90;;;;;;4997107;28;90388;-37
2021/12/14 04:09:37;;;;;;;;;;;8.30;99.90;;;;;;4998156;28;90300;-46
2021/12/14 04:12:06;;;;;;;34.58;25.95;;;8.20;99.90;;;;;;5000249;28;89007;-39
2021/12/14 04:14:32;;;;;;;34.33;26.80;;;8.20;99.90;;;;;;4997171;28;88875;-41
2021/12/14 04:16:59;;;;;;;31.20;26.08;;;8.20;99.90;;;;;;4962458;28;90874;-42
2021/12/14 04:19:27;;;;;;;34.65;27.45;;;8.20;99.90;;;;;;4978404;28;89736;-42
2021/12/14 04:21:57;;;;;;;37.47;27.05;;;8.20;99.90;;;;;;4975879;28;88423;-42
2021/12/14 04:24:27;;;;;;;39.08;28.20;;;8.20;99.90;;;;;;4973992;28;88928;-43
2021/12/14 04:26:55;;;;;;;29.98;26.80;;;8.20;99.90;;;;;;4975545;28;90469;-35
2021/12/14 04:29:21;;;;;;;;;;;8.20;99.90;;;;;;4979161;28;89626;-41
2021/12/14 04:31:49;;;;;;;41.80;31.23;;;8.20;99.90;;;;;;4984158;28;89833;-42
2021/12/14 04:34:17;;;;;;;36.97;27.73;;;8.10;99.90;;;;;;4980199;28;88292;-39
2021/12/14 04:36:45;;;;;;;35.60;29.08;;;8.10;99.90;;;;;;4980587;28;90796;-38
2021/12/14 04:53:10;;;;;;;30.25;25.75;;;7.90;99.90;;;;;;4981571;28;89908;-42
2021/12/14 04:55:39;;;;;;;38.13;28.75;;;7.80;99.90;;;;;;4981347;28;87676;-38
2021/12/14 04:58:05;;;;;;;40.65;28.55;;;7.80;99.90;;;;;;4981479;28;90809;-38
2021/12/14 05:00:38;;;;;;;36.25;29.67;;;7.80;99.90;;;;;;4980878;28;89492;-38
2021/12/14 05:03:13;;;;;;;36.83;29.38;;;7.80;99.90;;;;;;4963819;28;89448;-35
2021/12/14 05:05:56;;;;;;;36.67;29.17;;;7.80;99.90;;;;;;4980732;28;89990;-44
2021/12/14 05:10:59;;;;;;;38.25;32.20;;;7.80;99.90;;;;;;4978282;28;89819;-35
2021/12/14 05:13:32;;;;;;;37.17;29.17;;;7.80;99.90;;;;;;4978202;28;89536;-37
2021/12/14 05:15:58;;;;;;;38.17;30.77;;;7.80;99.90;;;;;;4978798;28;87646;-38
2021/12/14 05:18:24;;;;;;;37.05;28.83;;;7.80;99.90;;;;;;4979007;28;90475;-39
2021/12/14 05:20:52;;;;;;;35.17;31.23;;;7.80;99.90;;;;;;4978246;28;91019;-38
2021/12/14 05:23:36;;;;;;;39.25;30.73;;;7.80;99.90;;;;;;4978556;28;87776;-38
2021/12/14 05:26:03;;;;;;;40.95;30.92;;;7.90;99.90;;;;;;4979039;28;89795;-40
2021/12/14 05:28:30;;;;;;;39.45;31.77;;;7.90;99.90;;;;;;4961086;28;90300;-35
2021/12/14 05:30:58;;;;;;;34.67;28.90;;;7.90;99.90;;;;;;4978183;28;88466;-39
2021/12/14 05:33:31;;;;;;;43.55;32.25;;;7.80;99.90;;;;;;4976667;28;87606;-36
2021/12/14 05:36:01;;;;;;;38.53;30.02;;;7.90;99.90;;;;;;4980184;28;89164;-40
2021/12/14 05:38:47;;;;;;;35.88;31.10;;;7.90;99.90;;;;;;4981220;28;89772;-38
2021/12/14 05:43:06;;;;;;;36.33;30.70;;;7.90;99.90;;;;;;4997877;28;89625;-39
2021/12/14 05:44:04;;;;;;;35.83;29.08;;;7.90;99.90;;;;;;4998579;28;88571;-35
2021/12/14 05:46:30;;;;;;;40.50;30.63;;;7.90;99.90;;;;;;4998947;28;89086;-38
2021/12/14 05:48:58;;;;;;;39.75;32.30;;;7.90;99.90;;;;;;4998888;28;91203;-35
2021/12/14 05:51:24;;;;;;;44.03;31.48;;;8.00;99.90;;;;;;4999074;28;89935;-43
2021/12/14 05:53:50;;;;;;;45.47;30.17;;;8.00;99.90;;;;;;4998097;28;87557;-39
2021/12/14 05:56:20;;;;;;;40.75;33.38;;;8.00;99.90;;;;;;4999498;28;89529;-35
2021/12/14 05:58:46;;;;;;;40.75;33.90;;;8.00;99.90;;;;;;4999770;28;90529;-36
2021/12/14 06:01:14;;;;;;;41.90;33.40;;;8.00;99.90;;;;;;4982111;28;90790;-33
2021/12/14 06:04:04;;;;;;;42.45;34.33;;;8.10;99.90;;;;;;4999558;28;88795;-41
2021/12/14 06:06:36;;;;;;;49.90;34.50;;;8.00;99.90;;;;;;4989629;28;87865;-37
2021/12/14 06:09:29;;;;;;;43.47;33.28;;;8.00;99.90;;;;;;4999398;28;90532;-35
2021/12/14 06:12:05;;;;;;;42.50;35.10;;;8.00;99.90;;;;;;5000038;28;89456;-42
2021/12/14 06:14:31;;;;;;;46.65;37.65;;;8.00;99.90;;;;;;5000193;28;88084;-37
2021/12/14 06:17:01;;;;;;;43.80;34.45;;;8.00;99.90;;;;;;5000039;28;89059;-34
2021/12/14 06:19:31;;;;;;;39.33;33.83;;;7.90;99.90;;;;;;4999524;28;90399;-37
2021/12/14 06:22:11;;;;;;;41.95;33.40;;;7.90;99.90;;;;;;5000414;28;89877;-40
2021/12/14 06:24:42;;;;;;;41.63;35.05;;;7.90;99.90;;;;;;4999642;28;89633;-41
2021/12/14 06:27:19;;;;;;;46.10;36.28;;;7.90;99.90;;;;;;5000521;28;89335;-45
2021/12/14 06:29:49;;;;;;;43.63;36.15;;;7.90;99.90;;;;;;4999075;28;89336;-41
2021/12/14 06:32:21;;;;;;;46.33;33.22;;;7.90;99.90;;;;;;4999948;28;89038;-36
2021/12/14 06:34:57;;;;;;;42.97;34.65;;;7.90;99.90;;;;;;4998919;28;88057;-39
2021/12/14 06:40:17;;;;;;;49.70;37.13;;;7.90;99.90;;;;;;4999885;28;90423;-40
2021/12/14 06:42:48;;;;;;;40.03;33.40;;;7.90;99.90;;;;;;4999063;28;89637;-39
2021/12/14 06:45:19;;;;;;;49.05;38.15;;;7.90;99.90;;;;;;4999214;28;88775;-40
2021/12/14 06:47:48;;;;;;;51.28;37.92;;;7.90;99.90;;;;;;4999536;28;87707;-39
2021/12/14 06:50:22;;;;;;;44.22;36.08;;;7.90;99.90;;;;;;4999222;28;89604;-37
2021/12/14 06:52:57;;;;;;;50.28;37.25;;;7.90;99.90;;;;;;4999203;28;89578;-40
2021/12/14 06:55:25;;;;;;;45.13;34.45;;;7.90;99.90;;;;;;4998589;28;88317;-33
2021/12/14 06:57:51;;;;;;;48.30;36.93;;;7.90;99.90;;;;;;4999659;28;88205;-39
2021/12/14 07:00:17;;;;;;;48.72;36.90;;;7.90;99.90;;;;;;4999593;28;89616;-39
2021/12/14 07:02:48;;;;;;;50.25;37.95;;;7.90;99.90;;;;;;4998998;28;89550;-40
2021/12/14 07:05:21;;;;;;;45.92;38.15;;;7.90;99.90;;;;;;4981130;28;87943;-35
2021/12/14 07:07:46;;;;;;;44.78;36.53;;;7.90;99.90;;;;;;4999279;28;88894;-40
2021/12/14 07:10:13;;;;;;;49.83;37.90;;;7.90;99.90;;;;;;4999106;28;90470;-37
2021/12/14 07:12:40;;;;;;;50.60;38.42;;;7.90;99.90;;;;;;4999543;28;89702;-41
2021/12/14 07:15:23;;;;;;;47.83;38.72;;;7.90;99.90;;;;;;4999924;28;88184;-40
2021/12/14 07:18:01;;;;;;;48.83;37.22;;;8.00;99.90;;;;;;4997990;28;89767;-39
2021/12/14 07:20:32;;;;;;;49.10;38.17;;;8.00;99.90;;;;;;4998836;28;90375;-36
2021/12/14 07:23:04;;;;;;;47.50;37.65;;;7.90;99.90;;;;;;4998746;28;90383;-35
2021/12/14 07:25:38;;;;;;;60.72;41.42;;;7.90;99.90;;;;;;4998316;28;88480;-39
2021/12/14 07:28:11;;;;;;;50.05;39.50;;;7.90;99.90;;;;;;4999622;28;88116;-36
2021/12/14 07:30:55;;;;;;;54.75;39.42;;;7.90;99.90;;;;;;4997987;28;91697;-37
2021/12/14 07:33:28;;;;;;;50.80;39.05;;;7.90;99.90;;;;;;4997281;28;89387;-42
2021/12/14 07:36:00;;;;;;;56.50;43.75;;;7.90;99.90;;;;;;4998428;28;89720;-38
2021/12/14 07:38:31;;;;;;;50.35;40.45;;;7.90;99.90;;;;;;4996422;28;89360;-37
2021/12/14 07:41:36;;;;;;;54.58;43.78;;;7.90;99.90;;;;;;4996428;28;90242;-39
2021/12/14 07:44:17;;;;;;;45.97;39.13;;;7.90;99.90;;;;;;4994787;28;89993;-41
2021/12/14 07:46:51;;;;;;;51.05;40.65;;;7.90;99.90;;;;;;4996849;28;88609;-35
2021/12/14 07:49:23;;;;;;;55.22;43.75;;;7.90;99.90;;;;;;4996776;28;87612;-38
2021/12/14 07:51:53;;;;;;;54.78;40.92;;;7.90;99.90;;;;;;4995986;28;89977;-37
2021/12/14 07:54:26;;;;;;;55.67;42.92;;;8.00;99.90;;;;;;4995612;28;91738;-40
2021/12/14 07:56:58;;;;;;;50.40;39.55;;;8.00;99.90;;;;;;4996277;28;89052;-37
2021/12/14 07:59:55;;;;;;;52.40;40.67;;;8.10;99.90;;;;;;4995963;28;88723;-40
2021/12/14 08:02:37;;;;;;;58.03;43.55;;;8.10;99.90;;;;;;4996950;28;90514;-40
2021/12/14 08:05:23;;;;;;;54.63;42.58;;;8.10;99.90;;;;;;4999060;28;89709;-38
2021/12/14 08:07:49;;;;;;;55.30;44.22;;;8.10;99.90;;;;;;4999054;28;90076;-44
2021/12/14 08:10:32;;;;;;;56.90;42.55;;;8.10;99.90;;;;;;4979155;28;88240;-35
2021/12/14 08:13:13;;;;;;;54.97;44.28;;;8.10;99.90;;;;;;4979352;28;89314;-37
2021/12/14 08:15:52;;;;;;;61.15;46.55;;;8.10;99.90;;;;;;4994764;28;89907;-42
2021/12/14 08:18:24;;;;;;;58.90;42.67;;;8.10;99.90;;;;;;4999400;28;88562;-38
2021/12/14 08:21:10;;;;;;;50.85;39.55;;;8.10;99.90;;;;;;5000331;28;89563;-36
2021/12/14 08:23:39;;;;;;;56.72;42.88;;;8.10;99.90;;;;;;4999434;28;90591;-35
2021/12/14 08:26:10;;;;;;;52.88;42.35;;;8.20;99.90;;;;;;4998909;28;92485;-40
2021/12/14 08:28:51;;;;;;;50.72;40.20;;;8.10;99.90;;;;;;4999643;28;89231;-44
2021/12/14 08:31:18;;;;;;;53.58;42.60;;;8.10;99.90;;;;;;4999934;28;88417;-41
2021/12/14 08:33:44;;;;;;;59.65;44.65;;;8.20;99.90;;;;;;4998384;28;90937;-41
2021/12/14 08:36:12;;;;;;;53.00;44.25;;;8.20;99.90;;;;;;4998169;28;89642;-34
2021/12/14 08:38:38;;;;;;;;;;;8.20;99.90;;;;;;5001103;28;89905;-38
2021/12/14 08:41:20;;;;;;;58.42;46.03;;;8.20;99.90;;;;;;5001656;28;89233;-43
2021/12/14 08:43:50;;;;;;;61.58;47.60;;;8.20;99.90;;;;;;4999506;28;91075;-41
2021/12/14 08:46:22;;;;;;;66.30;46.05;;;8.20;99.90;;;;;;4999761;28;90346;-41
2021/12/14 08:49:00;;;;;;;60.28;43.20;;;8.20;99.90;;;;;;4999223;28;87698;-35
2021/12/14 08:51:32;;;;;;;61.43;46.73;;;8.20;99.90;;;;;;4999808;28;89077;-38
2021/12/14 08:54:12;;;;;;;61.97;45.70;;;8.20;99.90;;;;;;4998572;28;90455;-34
2021/12/14 08:56:44;;;;;;;60.85;45.17;;;8.20;99.90;;;;;;4998815;28;89736;-36
2021/12/14 08:59:10;;;;;;;56.40;43.95;;;8.20;99.90;;;;;;4981111;28;89254;-40
2021/12/14 09:01:42;;;;;;;58.88;43.85;;;8.20;99.90;;;;;;4980989;28;87508;-38
2021/12/14 09:04:22;;;;;;;55.75;43.67;;;8.30;99.90;;;;;;4998826;28;90276;-38
2021/12/14 09:06:55;;;;;;;58.63;44.28;;;8.30;99.90;;;;;;4999287;28;91392;-35
2021/12/14 09:09:22;;;;;;;59.80;45.13;;;8.30;99.90;;;;;;4998789;28;88284;-42
2021/12/14 09:11:53;;;;;;;56.07;42.33;;;8.40;99.90;;;;;;4999016;28;89909;-34
2021/12/14 09:14:19;;;;;;;53.88;42.38;;;8.30;99.90;;;;;;4997802;28;91274;-43
2021/12/14 09:16:54;;;;;;;57.83;43.53;;;8.40;99.90;;;;;;4997987;28;89458;-41
2021/12/14 09:19:36;;;;;;;58.03;46.28;;;8.40;99.90;;;;;;4991433;28;89516;-45
2021/12/14 09:22:07;;;;;;;59.10;46.70;;;8.40;99.90;;;;;;4978782;28;88702;-35
2021/12/14 09:24:33;;;;;;;57.38;44.75;;;8.40;99.90;;;;;;4978199;28;90582;-38
2021/12/14 09:27:07;;;;;;;56.95;44.28;;;8.40;99.90;;;;;;4993519;28;89639;-45
2021/12/14 09:29:33;;;;;;;64.65;46.60;;;8.40;99.90;;;;;;4997731;28;89372;-41
2021/12/14 09:32:02;;;;;;;55.97;42.75;;;8.40;99.90;;;;;;4977996;28;87655;-35
2021/12/14 09:34:30;;;;;;;52.58;41.95;;;8.40;99.90;;;;;;4982758;28;90558;-37
2021/12/14 09:36:58;;;;;;;56.40;44.30;;;8.40;99.90;;;;;;4997836;28;89698;-45
2021/12/14 09:39:35;;;;;;;51.63;42.10;;;8.40;99.90;;;;;;4999154;28;89617;-36
2021/12/14 09:42:06;;;;;;;58.83;43.87;;;8.40;99.90;;;;;;4998730;28;89070;-42
2021/12/14 09:44:34;;;;;;;59.17;42.45;;;8.50;99.90;;;;;;4998895;28;90204;-35
2021/12/14 09:47:09;;;;;;;60.17;43.58;;;8.40;99.90;;;;;;4998032;28;88274;-37
2021/12/14 09:49:36;;;;;;;56.22;44.28;;;8.50;99.90;;;;;;4980815;28;88814;-39
2021/12/14 09:52:25;;;;;;;55.95;42.72;;;8.50;99.90;;;;;;4986137;28;89580;-36
2021/12/14 09:54:52;;;;;;;49.90;41.88;;;8.50;99.90;;;;;;4977769;28;90193;-41
2021/12/14 09:57:29;;;;;;;54.23;41.03;;;8.50;99.90;;;;;;4978353;28;88326;-39
2021/12/14 09:59:57;;;;;;;52.78;41.08;;;8.50;99.90;;;;;;4915357;28;88918;-43
2021/12/14 10:02:33;;;;;;;53.72;42.95;;;8.60;99.90;;;;;;4938972;28;88021;-37
2021/12/14 10:05:31;;;;;;;61.20;45.28;;;8.60;99.90;;;;;;4939270;28;90223;-37
2021/12/14 10:07:58;;;;;;;62.20;49.75;;;8.60;99.90;;;;;;4939148;28;89549;-38
2021/12/14 10:10:24;;;;;;;60.60;46.53;;;8.60;99.90;;;;;;4939283;28;89726;-36
2021/12/14 10:12:54;;;;;;;59.45;46.13;;;8.60;99.90;;;;;;4938219;28;88209;-44
2021/12/14 10:15:29;;;;;;;53.88;41.55;;;8.60;99.90;;;;;;4938082;28;90164;-40
2021/12/14 10:18:02;;;;;;;53.78;42.60;;;8.60;99.90;;;;;;4939260;28;89751;-42
2021/12/14 10:20:34;;;;;;;57.63;44.25;;;8.70;99.90;;;;;;4938417;28;88530;-36
2021/12/14 10:23:00;;;;;;;60.22;45.42;;;8.70;99.90;;;;;;4938265;28;88981;-41
2021/12/14 10:25:27;;;;;;;56.30;43.78;;;8.70;99.90;;;;;;4935919;28;90770;-39
2021/12/14 10:27:54;;;;;;;56.80;42.58;;;8.70;99.90;;;;;;4938534;28;88910;-39
2021/12/14 10:30:35;;;;;;;54.45;41.15;;;8.70;99.90;;;;;;4939407;28;89271;-39
2021/12/14 10:33:02;;;;;;;61.42;48.38;;;8.70;99.90;;;;;;4938414;28;88961;-38
2021/12/14 10:35:35;;;;;;;51.28;41.35;;;8.70;99.90;;;;;;4936984;28;93436;-39
2021/12/14 10:38:27;;;;;;;55.30;43.78;;;8.70;99.90;;;;;;4937676;28;90641;-41
2021/12/14 10:43:54;;;;;;;57.15;44.85;;;8.70;99.90;;;;;;4937275;28;89964;-43
2021/12/14 10:46:27;;;;;;;55.38;45.25;;;8.70;99.90;;;;;;4936937;28;90382;-35
2021/12/14 10:48:56;;;;;;;55.97;43.60;;;8.70;99.90;;;;;;4936292;28;92585;-39
2021/12/14 10:51:29;;;;;;;60.03;46.90;;;8.70;99.90;;;;;;4936818;28;91049;-43
2021/12/14 10:53:57;;;;;;;57.67;44.63;;;8.70;99.90;;;;;;4937294;28;89137;-41
2021/12/14 10:56:27;;;;;;;62.47;43.90;;;8.70;99.90;;;;;;4937813;28;90701;-45
2021/12/14 10:58:56;;;;;;;50.90;41.67;;;8.70;99.90;;;;;;4937529;28;91429;-41
2021/12/14 11:01:29;;;;;;;55.63;42.08;;;8.70;99.90;;;;;;4937151;28;89556;-40
2021/12/14 11:03:58;;;;;;;51.97;41.90;;;8.70;99.90;;;;;;4936591;28;89144;-44
2021/12/14 11:06:29;;;;;;;51.55;42.78;;;8.80;99.90;;;;;;4937478;28;90528;-42
2021/12/14 11:09:40;;;;;;;59.88;47.28;;;8.80;99.90;;;;;;4936356;28;90106;-39
2021/12/14 11:11:55;;;;;;;55.38;42.53;;;8.80;99.90;;;;;;4936738;28;90248;-40
2021/12/14 11:14:28;;;;;;;51.22;41.58;;;8.80;99.90;;;;;;4936416;28;89600;-41
2021/12/14 11:19:54;;;;;;;52.75;41.70;;;8.90;99.90;;;;;;4936675;28;90837;-42
2021/12/14 11:22:45;;;;;;;55.17;40.97;;;9.00;99.90;;;;;;4937129;28;89867;-34
2021/12/14 11:25:16;;;;;;;53.22;41.45;;;8.90;99.90;;;;;;4936516;28;88781;-41
2021/12/14 11:27:48;;;;;;;58.38;42.67;;;8.90;99.90;;;;;;4936475;28;90320;-37
2021/12/14 11:30:20;;;;;;;57.33;38.97;;;8.90;99.90;;;;;;4936727;28;89878;-44
2021/12/14 11:33:08;;;;;;;52.45;43.00;;;8.80;99.90;;;;;;4936253;28;89249;-36
2021/12/14 11:35:44;;;;;;;59.08;42.05;;;8.90;99.90;;;;;;4936500;28;88033;-41
2021/12/14 11:38:37;;;;;;;51.50;38.47;;;8.90;99.90;;;;;;4936657;28;92668;-37
2021/12/14 11:41:20;;;;;;;57.58;42.08;;;8.90;99.90;;;;;;4935975;28;90696;-41
2021/12/14 11:44:08;;;;;;;51.88;39.47;;;8.90;99.90;;;;;;4936685;28;90681;-36
2021/12/14 11:47:05;;;;;;;52.38;39.53;;;8.90;99.90;;;;;;4931702;28;88187;-40
2021/12/14 11:49:48;;;;;;;54.03;38.88;;;8.90;99.90;;;;;;4932255;28;90621;-36
2021/12/14 11:52:38;;;;;;;46.15;38.17;;;8.90;99.90;;;;;;4935892;28;89575;-38
2021/12/14 11:55:31;;;;;;;55.13;38.72;;;8.80;99.90;;;;;;4936042;28;89504;-41
2021/12/14 11:58:17;;;;;;;50.72;37.72;;;8.90;99.90;;;;;;4936434;28;89742;-43
2021/12/14 12:01:16;;;;;;;47.75;36.85;;;8.90;99.90;;;;;;4936277;28;90376;-40
2021/12/14 12:03:45;;;;;;;46.47;37.40;;;8.80;99.90;;;;;;4934141;28;89651;-44
2021/12/14 12:06:31;;;;;;;;;;;8.80;99.90;;;;;;4937897;28;89555;-36
2021/12/14 12:11:46;;;;;;;50.28;38.58;;;8.80;99.90;;;;;;4935881;28;89360;-39
2021/12/14 12:14:25;;;;;;;52.08;35.25;;;8.80;99.90;;;;;;4934413;28;88588;-42
2021/12/14 12:16:56;;;;;;;51.90;36.45;;;8.90;99.90;;;;;;4935122;28;89824;-40
2021/12/14 12:19:26;;;;;;;44.53;36.05;;;8.90;99.90;;;;;;4935734;28;89692;-34
2021/12/14 12:21:53;;;;;;;42.03;35.33;;;8.90;99.90;;;;;;4935664;28;90493;-42
2021/12/14 12:24:39;;;;;;;41.10;32.03;;;8.80;99.90;;;;;;4935742;28;89719;-39
2021/12/14 12:27:20;;;;;;;40.47;32.35;;;8.90;99.90;;;;;;4936602;28;89399;-40
2021/12/14 12:29:46;;;;;;;42.50;33.85;;;8.80;99.90;;;;;;4936020;28;90047;-38
2021/12/14 12:32:21;;;;;;;49.58;35.53;;;8.80;99.90;;;;;;4936223;28;88934;-39
2021/12/14 12:34:48;;;;;;;34.85;30.50;;;8.90;99.90;;;;;;4934571;28;91367;-39
2021/12/14 12:37:14;;;;;;;47.08;32.58;;;8.80;99.90;;;;;;4934656;28;89634;-43
2021/12/14 12:39:48;;;;;;;39.25;32.58;;;8.80;99.90;;;;;;4934967;28;88706;-40
2021/12/14 12:42:16;;;;;;;42.35;31.35;;;8.80;99.90;;;;;;4936025;28;90582;-40
2021/12/14 12:44:43;;;;;;;34.80;28.25;;;8.90;99.90;;;;;;4935710;28;90310;-41
2021/12/14 12:47:20;;;;;;;34.17;28.35;;;8.90;99.90;;;;;;4935976;28;89946;-42
2021/12/14 12:49:52;;;;;;;37.50;29.60;;;8.90;99.90;;;;;;4936359;28;89175;-37
2021/12/14 12:52:22;;;;;;;30.33;25.98;;;8.90;99.90;;;;;;4939158;28;91172;-39
2021/12/14 12:55:08;;;;;;;32.88;26.80;;;8.90;99.90;;;;;;4938658;28;89778;-38
2021/12/14 12:57:55;;;;;;;34.25;28.85;;;8.90;99.90;;;;;;4938849;28;89291;-39
2021/12/14 13:00:34;;;;;;;35.22;25.92;;;9.00;99.90;;;;;;4938512;28;90125;-40
2021/12/14 13:03:28;;;;;;;32.30;25.08;;;9.00;99.90;;;;;;4938707;28;88745;-37
2021/12/14 13:05:55;;;;;;;31.48;22.50;;;8.90;99.90;;;;;;4938014;28;89402;-38
2021/12/14 13:08:38;;;;;;;30.05;25.60;;;8.90;99.90;;;;;;4938930;28;90162;-44
2021/12/14 13:11:27;;;;;;;28.83;24.27;;;8.90;99.90;;;;;;4939144;28;88417;-45
2021/12/14 13:14:01;;;;;;;28.88;22.67;;;9.00;99.90;;;;;;4938590;28;90166;-39
2021/12/14 13:16:31;;;;;;;27.75;23.13;;;8.90;99.90;;;;;;4938919;28;90158;-41
2021/12/14 13:19:01;;;;;;;25.55;20.42;;;8.90;99.90;;;;;;4938359;28;89783;-41
2021/12/14 13:21:31;;;;;;;29.10;23.40;;;9.00;99.90;;;;;;4938554;28;88711;-38
2021/12/14 13:24:06;;;;;;;26.67;21.67;;;9.00;99.90;;;;;;4937885;28;93390;-40
2021/12/14 13:26:40;;;;;;;26.98;22.85;;;9.00;99.90;;;;;;4937645;28;90448;-37
2021/12/14 13:29:06;;;;;;;27.95;21.77;;;9.10;99.90;;;;;;4938902;28;90504;-42
2021/12/14 13:31:53;;;;;;;27.83;22.23;;;9.00;99.90;;;;;;4938345;28;88921;-40
2021/12/14 13:34:31;;;;;;;29.20;20.77;;;9.00;99.90;;;;;;4937579;28;90440;-43
2021/12/14 13:36:58;;;;;;;35.63;25.55;;;9.00;99.90;;;;;;4938855;28;89273;-36
2021/12/14 13:39:25;;;;;;;28.27;22.38;;;9.00;99.90;;;;;;4938344;28;89778;-36
2021/12/14 13:42:12;;;;;;;26.87;21.47;;;9.10;99.90;;;;;;4948318;28;88883;-39
2021/12/14 13:44:42;;;;;;;33.53;25.25;;;9.10;99.90;;;;;;4957352;28;89455;-38
2021/12/14 13:47:11;;;;;;;36.88;25.85;;;9.10;99.90;;;;;;4957581;28;89881;-38